One Horse Store, Arkansas
Current Conditions -  °F | °C
As of 4:35 AM on Saturday 20 Dec 2014 (Local Time) from KSGT Reporting Station
Overcast Overcast  
Wind Chill: 34°   Ceiling: 6000
Heat Index: 39°   Visibility: NA
Dew Point: 34°   Wind: 7mph
Humidity: 81%   Direction: 10°N
Pressure: 30.24"   Gusts: NA
Location:  34.3615°N, 91.5213°W
Report Text: KSGT 201035Z 01006KT OVC060 04/01 A3024 RMK AO1
Loading
Personal Weather Stations






























Interactive Weather Map New forecast layout! Learn more

10-Day Weather Forecast

Advertisements
Track Severe Weather on mobile